Main page
METAR-TAF:

METAR-TAF

Airports :

K13-a, Netherlands

Oil platform

latitude: 53-13-04N, longitude: 3-13-13E, elevation: 31 m

Current weather observation

The report was made 1 hour and 2 minutes ago, at 12:55 UTC
Wind 10 kt from the Southwest with gusts up to 11 kt
Temperature 16°C
Humidity 82%
Pressure 1012 hPa

METAR: EHJR 241255Z AUTO 22010G11KT //// ///////// 16/13 Q1012 W15/H12

Time: 15:57 (13:57 UTC)


TAF: missing

Weather observations and forecasts of more than 4000 airports (METAR and TAF reports).

The available stations are represented by yellow and red dots on the map.

Hover mouse over dot to see the name of the station.

Then click to see weather observations and forecasts.

To change the map : click on the green buttons with a black cross to zoom in, on the green button with a dash to zoom out, or on the green arrows for adjacent maps.


METAR-TAF: